createdAt,value
2019-05-01T00:01:27.903Z,7.73
2019-05-01T00:03:56.166Z,8.67
2019-05-01T00:06:00.338Z,6.37
2019-05-01T00:08:04.970Z,7.93
2019-05-01T00:10:09.317Z,6.90
2019-05-01T00:12:13.184Z,6.57
2019-05-01T00:14:16.975Z,5.57
2019-05-01T00:16:20.824Z,6.27
2019-05-01T00:18:24.781Z,5.80
2019-05-01T00:20:28.531Z,6.57
2019-05-01T00:22:32.438Z,5.50
2019-05-01T00:24:36.230Z,5.60
2019-05-01T00:26:40.035Z,5.27
2019-05-01T00:28:43.881Z,8.27
2019-05-01T00:30:47.692Z,6.50
2019-05-01T00:32:51.505Z,8.60
2019-05-01T00:34:55.321Z,7.67
2019-05-01T00:36:59.150Z,6.00
2019-05-01T00:39:02.932Z,9.50
2019-05-01T00:41:06.735Z,7.60
2019-05-01T00:43:10.539Z,8.50
2019-05-01T00:45:15.607Z,10.83
2019-05-01T00:47:19.361Z,9.70
2019-05-01T00:49:23.171Z,9.77
2019-05-01T00:51:26.987Z,8.80
2019-05-01T00:53:31.882Z,6.63
2019-05-01T00:55:44.593Z,11.40
2019-05-01T00:57:55.774Z,11.00
2019-05-01T01:00:21.393Z,6.70
2019-05-01T01:02:33.732Z,5.53
2019-05-01T01:04:37.505Z,7.07
2019-05-01T01:06:41.316Z,6.20
2019-05-01T01:08:45.182Z,6.53
2019-05-01T01:10:53.016Z,7.43
2019-05-01T01:12:56.997Z,9.40
2019-05-01T01:15:00.711Z,9.83
2019-05-01T01:17:05.563Z,7.70
2019-05-01T01:19:09.437Z,6.70
2019-05-01T01:21:13.261Z,7.90
2019-05-01T01:23:17.615Z,6.03
2019-05-01T01:25:22.692Z,6.73
2019-05-01T01:27:26.859Z,10.17
2019-05-01T01:29:30.768Z,7.97
2019-05-01T01:31:35.734Z,7.50
2019-05-01T01:33:39.652Z,8.13
2019-05-01T01:35:43.464Z,8.90
2019-05-01T01:37:48.193Z,6.03
2019-05-01T01:39:52.075Z,5.73
2019-05-01T01:41:56.342Z,8.53
2019-05-01T01:44:11.496Z,7.07
2019-05-01T01:46:16.870Z,6.83
2019-05-01T01:48:21.735Z,8.57
2019-05-01T01:50:25.786Z,7.50
2019-05-01T01:52:29.935Z,5.10
2019-05-01T01:54:35.030Z,7.90
2019-05-01T01:56:38.955Z,7.43
2019-05-01T01:58:43.160Z,8.70
2019-05-01T02:01:18.343Z,8.33
2019-05-01T02:03:23.594Z,7.47
2019-05-01T02:05:33.711Z,8.83
2019-05-01T02:07:37.990Z,6.93
2019-05-01T02:09:42.032Z,10.40
2019-05-01T02:11:48.125Z,8.50
2019-05-01T02:13:56.022Z,6.93
2019-05-01T02:15:59.919Z,6.13
2019-05-01T02:18:03.828Z,6.03
2019-05-01T02:20:08.507Z,10.33
2019-05-01T02:22:12.325Z,8.60
2019-05-01T02:24:17.156Z,9.17
2019-05-01T02:26:23.227Z,10.83
2019-05-01T02:28:33.384Z,6.87
2019-05-01T02:30:38.149Z,5.13
2019-05-01T02:32:43.463Z,6.70
2019-05-01T02:34:49.502Z,7.33
2019-05-01T02:36:56.408Z,9.63
2019-05-01T02:39:01.064Z,6.50
2019-05-01T02:41:06.571Z,9.10
2019-05-01T02:43:13.457Z,5.47
2019-05-01T02:45:17.877Z,6.10
2019-05-01T02:47:28.285Z,9.50
2019-05-01T02:49:35.968Z,9.97
2019-05-01T02:51:41.759Z,7.37
2019-05-01T02:53:46.903Z,5.00
2019-05-01T02:56:10.405Z,7.20
2019-05-01T02:58:14.504Z,8.17
2019-05-01T03:00:18.336Z,7.10
2019-05-01T03:02:24.752Z,8.67
2019-05-01T03:04:28.685Z,6.23
2019-05-01T03:06:32.875Z,5.60
2019-05-01T03:08:37.707Z,6.77
2019-05-01T03:10:41.733Z,10.53
2019-05-01T03:12:48.469Z,7.23
2019-05-01T03:14:54.385Z,6.30
2019-05-01T03:17:03.018Z,6.77
2019-05-01T03:19:13.516Z,8.53
2019-05-01T03:21:24.878Z,8.07
2019-05-01T03:23:33.406Z,8.53
2019-05-01T03:25:38.650Z,11.07
2019-05-01T03:27:43.976Z,5.87
2019-05-01T03:29:47.908Z,7.33
2019-05-01T03:32:14.403Z,9.03
2019-05-01T03:33:58.030Z,8.73
2019-05-01T03:36:02.022Z,7.60
2019-05-01T03:38:05.914Z,6.37
2019-05-01T03:40:12.275Z,6.17
2019-05-01T03:42:16.657Z,8.20
2019-05-01T03:44:20.859Z,7.90
2019-05-01T03:46:25.125Z,6.63
2019-05-01T03:48:29.088Z,9.63
2019-05-01T03:50:33.105Z,6.57
2019-05-01T03:52:37.001Z,7.77
2019-05-01T03:54:41.930Z,6.80
2019-05-01T03:56:45.846Z,9.13
2019-05-01T03:58:49.849Z,6.93
2019-05-01T04:01:11.707Z,7.93
2019-05-01T04:03:20.391Z,9.23
2019-05-01T04:05:24.247Z,7.47
2019-05-01T04:07:28.164Z,9.47
2019-05-01T04:09:32.031Z,7.57
2019-05-01T04:11:36.031Z,7.80
2019-05-01T04:13:40.393Z,6.80
2019-05-01T04:15:44.643Z,9.80
2019-05-01T04:17:52.892Z,7.53
2019-05-01T04:19:56.774Z,7.03
2019-05-01T04:22:07.550Z,8.13
2019-05-01T04:24:11.519Z,6.77
2019-05-01T04:26:15.461Z,10.83
2019-05-01T04:28:28.806Z,9.33
2019-05-01T04:30:57.214Z,6.97
2019-05-01T04:33:02.754Z,9.07
2019-05-01T04:35:21.710Z,9.53
2019-05-01T04:37:26.147Z,8.50
2019-05-01T04:39:30.070Z,7.27
2019-05-01T04:41:35.601Z,7.03
2019-05-01T04:43:39.925Z,6.03
2019-05-01T04:45:44.026Z,5.80
2019-05-01T04:47:49.005Z,6.53
2019-05-01T04:49:54.187Z,7.57
2019-05-01T04:51:58.427Z,6.83
2019-05-01T04:54:02.411Z,7.53
2019-05-01T04:56:06.527Z,6.60
2019-05-01T04:58:11.491Z,10.03
2019-05-01T05:00:15.867Z,9.20
2019-05-01T05:02:27.960Z,7.57
2019-05-01T05:04:32.871Z,6.47
2019-05-01T05:06:36.834Z,6.87
2019-05-01T05:08:40.818Z,6.53
2019-05-01T05:10:45.082Z,6.83
2019-05-01T05:13:06.729Z,8.20
2019-05-01T05:15:21.328Z,7.17
2019-05-01T05:17:25.924Z,6.30
2019-05-01T05:19:29.886Z,8.70
2019-05-01T05:21:33.846Z,5.77
2019-05-01T05:23:38.077Z,9.23
2019-05-01T05:25:42.298Z,6.97
2019-05-01T05:27:46.598Z,6.77
2019-05-01T05:29:57.963Z,7.73
2019-05-01T05:32:03.782Z,7.20
2019-05-01T05:34:08.722Z,5.50
2019-05-01T05:36:16.571Z,11.60
2019-05-01T05:38:30.926Z,5.90
2019-05-01T05:40:36.044Z,8.77
2019-05-01T05:42:39.938Z,10.47
2019-05-01T05:44:44.997Z,11.07
2019-05-01T05:46:48.788Z,7.37
2019-05-01T05:48:52.765Z,7.70
2019-05-01T05:51:21.946Z,11.47
2019-05-01T05:53:30.254Z,9.37
2019-05-01T05:55:43.073Z,7.03
2019-05-01T05:58:01.877Z,8.97
2019-05-01T06:00:17.862Z,7.40
2019-05-01T06:02:40.266Z,10.00
2019-05-01T06:05:06.521Z,9.63
2019-05-01T06:07:22.987Z,9.93
2019-05-01T06:09:38.191Z,8.20
2019-05-01T06:12:10.151Z,9.00
2019-05-01T06:14:32.934Z,7.80
2019-05-01T06:16:59.101Z,10.17
2019-05-01T06:19:27.874Z,7.47
2019-05-01T06:21:38.025Z,9.33
2019-05-01T06:24:06.372Z,8.37
2019-05-01T06:26:23.196Z,10.60
2019-05-01T06:28:29.573Z,9.73
2019-05-01T06:30:33.785Z,9.30
2019-05-01T06:32:39.930Z,9.53
2019-05-01T06:34:43.611Z,10.00
2019-05-01T06:36:49.551Z,11.93
2019-05-01T06:38:55.535Z,11.53
2019-05-01T06:41:01.283Z,10.03
2019-05-01T06:43:05.310Z,17.80
2019-05-01T06:45:16.856Z,13.53
2019-05-01T06:47:27.128Z,10.50
2019-05-01T06:49:49.926Z,13.40
2019-05-01T06:51:55.508Z,17.13
2019-05-01T06:53:59.378Z,8.87
2019-05-01T06:56:03.225Z,11.60
2019-05-01T06:58:07.310Z,12.37
2019-05-01T07:00:15.903Z,11.90
2019-05-01T07:02:20.015Z,14.73
2019-05-01T07:04:24.432Z,16.53
2019-05-01T07:06:31.198Z,14.73
2019-05-01T07:08:34.450Z,11.17
2019-05-01T07:10:44.116Z,13.20
2019-05-01T07:12:47.548Z,14.63
2019-05-01T07:14:52.372Z,12.63
2019-05-01T07:16:56.277Z,13.13
2019-05-01T07:19:05.833Z,17.40
2019-05-01T07:21:08.332Z,13.60
2019-05-01T07:23:12.683Z,17.30
2019-05-01T07:25:17.970Z,22.50
2019-05-01T07:27:23.634Z,15.17
2019-05-01T07:29:29.163Z,17.00
2019-05-01T07:31:33.055Z,20.30
2019-05-01T07:33:37.317Z,18.27
2019-05-01T07:35:43.057Z,17.17
2019-05-01T07:37:47.094Z,17.60
2019-05-01T07:39:51.817Z,17.40
2019-05-01T07:41:57.413Z,18.13
2019-05-01T07:44:11.711Z,19.23
2019-05-01T07:46:32.379Z,19.00
2019-05-01T07:48:41.403Z,22.00
2019-05-01T07:50:45.055Z,20.80
2019-05-01T07:52:52.200Z,21.00
2019-05-01T07:54:56.428Z,20.57
2019-05-01T07:57:03.267Z,22.83
2019-05-01T07:59:05.915Z,22.80
2019-05-01T08:01:18.438Z,21.53
2019-05-01T08:03:20.676Z,22.60
2019-05-01T08:05:24.426Z,22.10
2019-05-01T08:07:32.315Z,25.67
2019-05-01T08:09:34.510Z,24.00
2019-05-01T08:11:39.170Z,22.67
2019-05-01T08:13:44.031Z,19.70
2019-05-01T08:15:47.842Z,22.67
2019-05-01T08:17:54.298Z,23.40
2019-05-01T08:20:03.436Z,29.30
2019-05-01T08:22:16.550Z,22.00
2019-05-01T08:24:22.953Z,23.73
2019-05-01T08:26:25.992Z,23.90
2019-05-01T08:28:50.850Z,25.47
2019-05-01T08:31:27.754Z,27.73
2019-05-01T08:33:44.861Z,20.03
2019-05-01T08:35:46.963Z,27.13
2019-05-01T08:37:53.788Z,23.07
2019-05-01T08:39:56.314Z,25.27
2019-05-01T08:42:02.991Z,24.33
2019-05-01T08:44:06.456Z,29.77
2019-05-01T08:46:32.393Z,26.63
2019-05-01T08:48:46.688Z,25.57
2019-05-01T08:50:54.623Z,27.60
2019-05-01T08:52:56.713Z,20.97
2019-05-01T08:55:04.340Z,24.83
2019-05-01T08:57:07.918Z,26.30
2019-05-01T08:59:11.327Z,23.30
2019-05-01T09:01:16.351Z,21.27
2019-05-01T09:03:20.450Z,23.83
2019-05-01T09:05:29.165Z,22.97
2019-05-01T09:07:29.658Z,27.17
2019-05-01T09:09:33.746Z,28.40
2019-05-01T09:11:37.702Z,27.30
2019-05-01T09:13:41.435Z,25.77
2019-05-01T09:15:48.338Z,28.53
2019-05-01T09:17:50.664Z,25.03
2019-05-01T09:19:54.419Z,32.77
2019-05-01T09:21:58.254Z,25.53
2019-05-01T09:24:02.084Z,28.83
2019-05-01T09:26:36.949Z,32.77
2019-05-01T09:28:44.800Z,32.37
2019-05-01T09:30:53.640Z,29.97
2019-05-01T09:32:57.467Z,28.33
2019-05-01T09:35:01.279Z,29.27
2019-05-01T09:37:05.244Z,45.33
2019-05-01T09:39:10.791Z,69.03
2019-05-01T09:41:14.558Z,57.10
2019-05-01T09:43:18.425Z,86.23
2019-05-01T09:45:22.230Z,31.87
2019-05-01T09:47:25.968Z,41.07
2019-05-01T09:49:29.721Z,32.93
2019-05-01T09:52:04.847Z,32.47
2019-05-01T09:54:33.747Z,29.07
2019-05-01T09:56:38.383Z,43.97
2019-05-01T09:58:42.319Z,57.27
2019-05-01T10:00:48.749Z,39.63
2019-05-01T10:02:54.521Z,34.23
2019-05-01T10:04:57.151Z,30.17
2019-05-01T10:07:02.272Z,27.87
2019-05-01T10:09:12.043Z,31.47
2019-05-01T10:11:13.252Z,26.90
2019-05-01T10:13:17.756Z,28.13
2019-05-01T10:15:22.503Z,32.93
2019-05-01T10:17:26.230Z,29.40
2019-05-01T10:19:29.960Z,36.47
2019-05-01T10:21:33.807Z,31.67
2019-05-01T10:23:37.604Z,35.13
2019-05-01T10:25:47.964Z,30.90
2019-05-01T10:27:56.983Z,35.23
2019-05-01T10:30:16.531Z,31.70
2019-05-01T10:32:33.339Z,27.43
2019-05-01T10:34:48.144Z,30.97
2019-05-01T10:36:54.448Z,27.37
2019-05-01T10:38:57.368Z,30.83
2019-05-01T10:41:04.222Z,30.90
2019-05-01T10:43:06.804Z,28.60
2019-05-01T10:45:10.718Z,29.60
2019-05-01T10:47:14.605Z,31.17
2019-05-01T10:49:18.483Z,37.63
2019-05-01T10:51:22.257Z,31.90
2019-05-01T10:53:25.995Z,29.07
2019-05-01T10:55:29.807Z,32.30
2019-05-01T10:57:35.271Z,29.33
2019-05-01T10:59:39.042Z,32.33
2019-05-01T11:01:49.467Z,29.17
2019-05-01T11:03:53.256Z,30.33
2019-05-01T11:05:56.982Z,33.83
2019-05-01T11:08:01.689Z,31.47
2019-05-01T11:10:06.357Z,33.27
2019-05-01T11:12:10.098Z,29.83
2019-05-01T11:14:13.888Z,26.10
2019-05-01T11:16:17.779Z,32.20
2019-05-01T11:18:21.561Z,30.47
2019-05-01T11:20:25.304Z,31.20
2019-05-01T11:22:29.030Z,36.03
2019-05-01T11:24:32.781Z,32.53
2019-05-01T11:26:36.522Z,29.30
2019-05-01T11:28:40.303Z,38.00
2019-05-01T11:30:44.118Z,28.87
2019-05-01T11:32:57.264Z,30.47
2019-05-01T11:35:19.997Z,28.70
2019-05-01T11:37:48.978Z,31.37
2019-05-01T11:39:57.118Z,34.03
2019-05-01T11:42:12.738Z,29.97
2019-05-01T11:44:16.458Z,27.57
2019-05-01T11:46:20.167Z,30.47
2019-05-01T11:48:25.094Z,31.80
2019-05-01T11:50:29.412Z,30.63
2019-05-01T11:52:33.253Z,29.57
2019-05-01T11:54:37.091Z,31.73
2019-05-01T11:56:40.900Z,28.53
2019-05-01T11:58:44.714Z,29.47
2019-05-01T12:00:49.994Z,32.27
2019-05-01T12:02:53.798Z,32.63
2019-05-01T12:04:57.544Z,30.30
2019-05-01T12:07:01.274Z,28.00
2019-05-01T12:09:06.857Z,30.97
2019-05-01T12:11:11.445Z,32.90
2019-05-01T12:13:15.208Z,28.37
2019-05-01T12:15:19.384Z,28.97
2019-05-01T12:17:28.626Z,29.17
2019-05-01T12:19:32.738Z,29.40
2019-05-01T12:21:36.483Z,30.67
2019-05-01T12:23:40.220Z,29.37
2019-05-01T12:25:43.954Z,29.87
2019-05-01T12:27:47.727Z,29.93
2019-05-01T12:29:51.456Z,29.00
2019-05-01T12:31:57.714Z,31.63
2019-05-01T12:34:01.445Z,31.73
2019-05-01T12:36:06.297Z,29.53
2019-05-01T12:38:10.030Z,27.83
2019-05-01T12:40:16.419Z,26.83
2019-05-01T12:42:21.678Z,33.17
2019-05-01T12:44:25.413Z,27.17
2019-05-01T12:46:54.004Z,25.20
2019-05-01T12:48:57.730Z,33.13
2019-05-01T12:51:01.468Z,29.60
2019-05-01T12:53:28.856Z,27.97
2019-05-01T12:55:58.009Z,27.03
2019-05-01T12:58:01.810Z,31.80
2019-05-01T13:00:09.149Z,26.70
2019-05-01T13:02:13.077Z,27.83
2019-05-01T13:04:17.833Z,27.13
2019-05-01T13:06:21.767Z,29.60
2019-05-01T13:08:25.541Z,24.97
2019-05-01T13:10:29.363Z,27.00
2019-05-01T13:12:31.954Z,25.80
2019-05-01T13:14:35.637Z,28.33
2019-05-01T13:16:39.653Z,24.83
2019-05-01T13:18:43.384Z,24.93
2019-05-01T13:20:47.107Z,30.70
2019-05-01T13:22:50.839Z,24.00
2019-05-01T13:24:54.578Z,30.53
2019-05-01T13:27:05.241Z,26.60
2019-05-01T13:29:14.936Z,25.10
2019-05-01T13:31:37.763Z,25.10
2019-05-01T13:33:41.663Z,22.60
2019-05-01T13:35:45.538Z,29.30
2019-05-01T13:37:49.344Z,24.23
2019-05-01T13:39:53.247Z,24.30
2019-05-01T13:41:57.066Z,25.97
2019-05-01T13:44:00.880Z,24.43
2019-05-01T13:46:04.840Z,24.63
2019-05-01T13:48:08.645Z,20.73
2019-05-01T13:50:13.130Z,27.03
2019-05-01T13:52:16.939Z,21.80
2019-05-01T13:54:20.681Z,23.07
2019-05-01T13:56:24.490Z,24.70
2019-05-01T13:58:28.236Z,22.37
2019-05-01T14:00:32.071Z,19.83
2019-05-01T14:02:35.884Z,22.73
2019-05-01T14:04:39.784Z,22.63
2019-05-01T14:06:43.528Z,21.27
2019-05-01T14:08:47.321Z,30.23
2019-05-01T14:10:51.180Z,22.87
2019-05-01T14:12:54.972Z,22.87
2019-05-01T14:14:58.710Z,23.73
2019-05-01T14:17:02.461Z,19.13
2019-05-01T14:19:06.282Z,19.03
2019-05-01T14:21:29.049Z,19.73
2019-05-01T14:23:50.935Z,18.90
2019-05-01T14:26:04.618Z,19.97
2019-05-01T14:28:08.376Z,16.95
2019-05-01T14:30:12.817Z,19.92
2019-05-01T14:32:16.671Z,19.82
2019-05-01T14:34:20.406Z,16.85
2019-05-01T14:36:24.123Z,17.27
2019-05-01T14:38:27.942Z,17.85
2019-05-01T14:40:33.400Z,19.60
2019-05-01T14:42:37.224Z,14.70
2019-05-01T14:44:40.952Z,17.37
2019-05-01T14:46:44.764Z,14.37
2019-05-01T14:48:48.500Z,13.88
2019-05-01T14:50:52.223Z,14.87
2019-05-01T14:52:55.953Z,14.60
2019-05-01T14:54:59.761Z,18.00
2019-05-01T14:57:03.829Z,17.12
2019-05-01T14:59:07.804Z,17.90
2019-05-01T15:01:11.624Z,16.42
2019-05-01T15:03:15.449Z,14.53
2019-05-01T15:05:19.186Z,15.28
2019-05-01T15:07:23.019Z,19.35
2019-05-01T15:09:26.757Z,19.23
2019-05-01T15:11:30.476Z,17.93
2019-05-01T15:13:42.630Z,16.83
2019-05-01T15:15:54.901Z,18.95
2019-05-01T15:18:03.201Z,16.60
2019-05-01T15:20:07.745Z,17.67
2019-05-01T15:22:11.466Z,18.10
2019-05-01T15:24:15.216Z,13.95
2019-05-01T15:26:18.936Z,16.10
2019-05-01T15:28:22.748Z,21.63
2019-05-01T15:30:26.662Z,18.27
2019-05-01T15:32:30.399Z,17.75
2019-05-01T15:34:34.130Z,14.28
2019-05-01T15:36:37.863Z,15.88
2019-05-01T15:38:41.630Z,17.95
2019-05-01T15:40:56.443Z,20.12
2019-05-01T15:43:02.973Z,19.93
2019-05-01T15:45:07.160Z,33.13
2019-05-01T15:47:11.028Z,34.90
2019-05-01T15:49:14.777Z,21.20
2019-05-01T15:51:18.660Z,19.60
2019-05-01T15:53:22.484Z,18.80
2019-05-01T15:55:26.251Z,15.88
2019-05-01T15:57:30.069Z,21.10
2019-05-01T15:59:33.883Z,17.25
2019-05-01T16:01:37.718Z,20.40
2019-05-01T16:03:41.543Z,27.25
2019-05-01T16:05:45.313Z,23.70
2019-05-01T16:07:49.122Z,20.23
2019-05-01T16:09:52.939Z,16.07
2019-05-01T16:12:15.692Z,27.77
2019-05-01T16:14:19.459Z,17.55
2019-05-01T16:16:23.214Z,19.07
2019-05-01T16:18:26.948Z,15.43
2019-05-01T16:20:30.704Z,21.85
2019-05-01T16:22:34.431Z,15.68
2019-05-01T16:24:38.187Z,19.13
2019-05-01T16:26:41.914Z,20.75
2019-05-01T16:28:45.656Z,17.90
2019-05-01T16:30:49.399Z,14.73
2019-05-01T16:32:53.197Z,16.75
2019-05-01T16:34:56.941Z,18.73
2019-05-01T16:37:00.676Z,23.80
2019-05-01T16:39:24.648Z,22.45
2019-05-01T16:41:28.841Z,25.80
2019-05-01T16:43:32.590Z,15.78
2019-05-01T16:45:36.337Z,25.27
2019-05-01T16:47:40.060Z,27.65
2019-05-01T16:49:43.870Z,18.05
2019-05-01T16:51:47.673Z,16.80
2019-05-01T16:53:51.451Z,16.97
2019-05-01T16:55:55.270Z,17.30
2019-05-01T16:57:59.067Z,14.43
2019-05-01T17:00:03.543Z,18.52
2019-05-01T17:02:15.164Z,17.25
2019-05-01T17:04:26.796Z,17.80
2019-05-01T17:06:45.356Z,17.27
2019-05-01T17:08:54.813Z,15.40
2019-05-01T17:10:59.006Z,16.05
2019-05-01T17:13:03.591Z,12.57
2019-05-01T17:15:07.563Z,15.20
2019-05-01T17:17:15.302Z,13.70
2019-05-01T17:19:19.098Z,14.03
2019-05-01T17:21:22.934Z,16.75
2019-05-01T17:23:26.738Z,17.92
2019-05-01T17:25:30.481Z,19.93
2019-05-01T17:27:34.227Z,16.82
2019-05-01T17:29:38.025Z,17.07
2019-05-01T17:31:41.761Z,20.25
2019-05-01T17:33:45.577Z,19.52
2019-05-01T17:35:49.393Z,21.83
2019-05-01T17:37:53.125Z,23.55
2019-05-01T17:39:56.867Z,16.85
2019-05-01T17:42:02.072Z,15.10
2019-05-01T17:44:06.088Z,22.97
2019-05-01T17:46:10.775Z,23.30
2019-05-01T17:48:15.598Z,19.85
2019-05-01T17:50:21.159Z,21.87
2019-05-01T17:52:24.839Z,17.85
2019-05-01T17:54:28.569Z,22.93
2019-05-01T17:56:32.306Z,22.47
2019-05-01T17:58:36.035Z,20.55
2019-05-01T18:00:49.641Z,21.48
2019-05-01T18:03:00.173Z,20.97
2019-05-01T18:05:23.382Z,21.40
2019-05-01T18:07:28.843Z,17.80
2019-05-01T18:09:33.673Z,18.47
2019-05-01T18:11:37.569Z,19.67
2019-05-01T18:13:41.367Z,15.37
2019-05-01T18:15:45.457Z,19.73
2019-05-01T18:17:49.260Z,16.40
2019-05-01T18:19:53.004Z,17.00
2019-05-01T18:22:06.642Z,19.65
2019-05-01T18:24:28.162Z,24.37
2019-05-01T18:26:43.567Z,19.77
2019-05-01T18:29:05.869Z,19.23
2019-05-01T18:31:11.039Z,16.48
2019-05-01T18:33:14.883Z,15.20
2019-05-01T18:35:18.819Z,18.00
2019-05-01T18:37:31.185Z,19.33
2019-05-01T18:39:36.710Z,15.90
2019-05-01T18:42:01.431Z,15.33
2019-05-01T18:44:10.030Z,16.20
2019-05-01T18:46:11.990Z,15.63
2019-05-01T18:48:16.204Z,15.50
2019-05-01T18:50:20.090Z,17.20
2019-05-01T18:52:23.834Z,16.47
2019-05-01T18:54:30.468Z,17.10
2019-05-01T18:56:38.137Z,33.07
2019-05-01T18:58:38.800Z,26.10
2019-05-01T19:00:43.027Z,34.30
2019-05-01T19:02:46.854Z,28.27
2019-05-01T19:04:50.725Z,25.00
2019-05-01T19:06:54.529Z,30.27
2019-05-01T19:08:58.426Z,21.77
2019-05-01T19:11:12.335Z,20.87
2019-05-01T19:13:07.832Z,23.10
2019-05-01T19:15:11.710Z,24.33
2019-05-01T19:17:15.510Z,27.03
2019-05-01T19:19:19.338Z,33.87
2019-05-01T19:21:24.708Z,34.63
2019-05-01T19:23:29.915Z,30.63
2019-05-01T19:25:34.162Z,25.57
2019-05-01T19:27:37.970Z,19.73
2019-05-01T19:29:41.713Z,16.27
2019-05-01T19:31:45.586Z,17.00
2019-05-01T19:33:49.329Z,19.70
2019-05-01T19:35:53.070Z,14.37
2019-05-01T19:37:57.452Z,14.40
2019-05-01T19:40:02.517Z,14.83
2019-05-01T19:42:06.330Z,15.30
2019-05-01T19:44:13.814Z,15.83
2019-05-01T19:46:15.646Z,22.70
2019-05-01T19:48:19.409Z,17.93
2019-05-01T19:50:23.130Z,14.90
2019-05-01T19:52:26.862Z,15.53
2019-05-01T19:54:30.654Z,17.90
2019-05-01T19:56:34.412Z,15.20
2019-05-01T19:58:38.171Z,17.93
2019-05-01T20:00:57.376Z,16.80
2019-05-01T20:03:01.258Z,18.77
2019-05-01T20:05:06.175Z,17.43
2019-05-01T20:07:10.659Z,17.20
2019-05-01T20:09:15.529Z,16.03
2019-05-01T20:11:19.411Z,20.17
2019-05-01T20:13:23.256Z,18.30
2019-05-01T20:15:26.983Z,17.10
2019-05-01T20:17:30.713Z,16.07
2019-05-01T20:19:34.458Z,16.57
2019-05-01T20:21:38.197Z,18.30
2019-05-01T20:23:42.027Z,16.97
2019-05-01T20:25:45.854Z,20.13
2019-05-01T20:27:53.119Z,19.27
2019-05-01T20:29:55.081Z,19.27
2019-05-01T20:31:58.817Z,17.70
2019-05-01T20:34:02.558Z,19.07
2019-05-01T20:36:06.646Z,20.03
2019-05-01T20:38:10.437Z,18.37
2019-05-01T20:40:15.495Z,20.70
2019-05-01T20:42:19.232Z,18.77
2019-05-01T20:44:25.405Z,19.87
2019-05-01T20:46:28.568Z,17.60
2019-05-01T20:48:32.307Z,18.20
2019-05-01T20:50:36.042Z,16.90
2019-05-01T20:52:39.793Z,17.47
2019-05-01T20:54:43.540Z,19.10
2019-05-01T20:56:53.051Z,19.07
2019-05-01T20:58:57.628Z,17.73
2019-05-01T21:01:03.309Z,19.73
2019-05-01T21:03:07.040Z,21.80
2019-05-01T21:05:41.838Z,16.70
2019-05-01T21:08:01.150Z,22.90
2019-05-01T21:10:05.572Z,20.07
2019-05-01T21:12:09.427Z,18.43
2019-05-01T21:14:22.418Z,18.40
2019-05-01T21:16:18.750Z,19.17
2019-05-01T21:18:26.052Z,19.83
2019-05-01T21:20:27.937Z,20.53
2019-05-01T21:22:33.407Z,16.67
2019-05-01T21:24:37.176Z,16.67
2019-05-01T21:26:40.964Z,18.90
2019-05-01T21:28:45.012Z,19.00
2019-05-01T21:30:48.785Z,16.63
2019-05-01T21:32:54.210Z,20.37
2019-05-01T21:34:57.994Z,16.27
2019-05-01T21:37:01.722Z,19.23
2019-05-01T21:39:06.331Z,22.13
2019-05-01T21:41:10.146Z,19.70
2019-05-01T21:43:13.961Z,21.23
2019-05-01T21:45:17.759Z,21.17
2019-05-01T21:47:23.516Z,21.07
2019-05-01T21:49:28.780Z,24.77
2019-05-01T21:51:32.893Z,19.27
2019-05-01T21:53:37.286Z,20.80
2019-05-01T21:55:42.211Z,18.70
2019-05-01T21:57:50.005Z,23.13
2019-05-01T21:59:51.577Z,21.30
2019-05-01T22:01:55.498Z,23.73
2019-05-01T22:04:00.359Z,19.80
2019-05-01T22:06:04.399Z,20.60
2019-05-01T22:08:08.263Z,24.37
2019-05-01T22:10:12.228Z,22.00
2019-05-01T22:12:16.441Z,22.40
2019-05-01T22:14:36.087Z,24.20
2019-05-01T22:16:37.001Z,21.90
2019-05-01T22:18:52.740Z,25.90
2019-05-01T22:21:20.396Z,23.47
2019-05-01T22:23:25.218Z,25.33
2019-05-01T22:25:50.877Z,26.03
2019-05-01T22:28:03.754Z,24.67
2019-05-01T22:30:18.482Z,22.20
2019-05-01T22:32:27.680Z,26.67
2019-05-01T22:34:37.646Z,22.43
2019-05-01T22:36:41.459Z,21.97
2019-05-01T22:38:46.674Z,22.33
2019-05-01T22:41:07.230Z,21.40
2019-05-01T22:43:11.270Z,24.33
2019-05-01T22:45:21.028Z,22.83
2019-05-01T22:47:25.767Z,28.63
2019-05-01T22:49:29.570Z,23.33
2019-05-01T22:51:33.479Z,22.73
2019-05-01T22:53:37.281Z,22.53
2019-05-01T22:55:41.081Z,21.07
2019-05-01T22:57:44.995Z,25.37
2019-05-01T22:59:48.824Z,21.93
2019-05-01T23:01:54.716Z,27.13
2019-05-01T23:04:04.608Z,21.03
2019-05-01T23:06:08.546Z,23.53
2019-05-01T23:08:12.482Z,22.90
2019-05-01T23:10:16.445Z,24.43
2019-05-01T23:12:20.294Z,23.07
2019-05-01T23:14:24.875Z,24.57
2019-05-01T23:16:32.580Z,23.50
2019-05-01T23:18:36.409Z,25.30
2019-05-01T23:20:40.592Z,25.50
2019-05-01T23:22:44.498Z,21.80
2019-05-01T23:24:48.252Z,23.53
2019-05-01T23:26:53.002Z,19.93
2019-05-01T23:28:56.817Z,22.33
2019-05-01T23:31:00.658Z,20.23
2019-05-01T23:33:04.644Z,19.90
2019-05-01T23:35:08.648Z,22.90
2019-05-01T23:37:12.489Z,23.83
2019-05-01T23:39:16.324Z,19.77
2019-05-01T23:41:24.806Z,21.93
2019-05-01T23:43:27.948Z,21.30
2019-05-01T23:45:32.409Z,22.13
2019-05-01T23:47:36.320Z,22.90
2019-05-01T23:49:40.286Z,20.17
2019-05-01T23:51:49.992Z,20.83
2019-05-01T23:53:53.792Z,21.27
2019-05-01T23:55:59.945Z,24.13
2019-05-01T23:58:03.140Z,20.40
